Time;durP1;ratioP1;P1;durP2;ratioP2;P2;SDS_P1;SDS_P2;PMS_P1;PMS_P2;Temp;Humidity;BMP_temperature;BMP_pressure;BME280_temperature;BME280_humidity;BME280_pressure;Samples;Min_cycle;Max_cycle;Signal;HPM_P1;HPM_P2
2021/08/02 00:01:52;;;;;;;7.40;3.00;;;;;;;;;;732557;192;919578;-64
2021/08/02 00:04:18;;;;;;;7.57;2.80;;;;;;;;;;727614;192;920299;-64
2021/08/02 00:06:44;;;;;;;4.63;3.13;;;;;;;;;;726392;192;918935;-64
2021/08/02 00:09:10;;;;;;;9.73;3.17;;;;;;;;;;730723;192;919041;-65
2021/08/02 00:11:38;;;;;;;6.93;3.17;;;;;;;;;;726270;192;919659;-64
2021/08/02 00:14:04;;;;;;;6.40;2.80;;;;;;;;;;724550;192;920195;-66
2021/08/02 00:16:30;;;;;;;7.20;3.10;;;;;;;;;;730430;192;919067;-65
2021/08/02 00:18:55;;;;;;;11.23;3.30;;;;;;;;;;726697;192;920326;-65
2021/08/02 00:21:21;;;;;;;11.12;2.97;;;;;;;;;;725345;192;934442;-65
2021/08/02 00:23:47;;;;;;;15.77;4.40;;;;;;;;;;727060;192;918661;-63
2021/08/02 00:26:13;;;;;;;8.80;3.00;;;;;;;;;;732697;188;1021619;-65
2021/08/02 00:28:39;;;;;;;5.50;2.90;;;;;;;;;;727244;191;919660;-64
2021/08/02 00:31:05;;;;;;;7.03;2.80;;;;;;;;;;727684;192;919586;-65
2021/08/02 00:33:30;;;;;;;9.23;3.63;;;;;;;;;;733434;191;918972;-65
2021/08/02 00:35:56;;;;;;;6.43;2.77;;;;;;;;;;725960;191;950057;-66
2021/08/02 00:38:22;;;;;;;4.00;3.27;;;;;;;;;;726879;192;920240;-64
2021/08/02 00:40:52;;;;;;;6.57;3.67;;;;;;;;;;731527;192;869827;-65
2021/08/02 00:43:22;;;;;;;10.10;3.30;;;;;;;;;;726768;192;919109;-67
2021/08/02 00:45:48;;;;;;;14.60;3.50;;;;;;;;;;725785;191;920015;-65
2021/08/02 00:48:16;;;;;;;13.87;3.43;;;;;;;;;;725595;192;918832;-65
2021/08/02 00:50:42;;;;;;;10.13;4.10;;;;;;;;;;732747;192;920101;-65
2021/08/02 00:53:10;;;;;;;12.43;3.90;;;;;;;;;;727737;191;919282;-65
2021/08/02 00:55:35;;;;;;;10.63;3.20;;;;;;;;;;725608;192;918883;-65
2021/08/02 00:58:01;;;;;;;5.30;3.30;;;;;;;;;;730970;192;920075;-65
2021/08/02 01:00:27;;;;;;;6.97;3.53;;;;;;;;;;727369;192;919658;-65
2021/08/02 01:02:53;;;;;;;5.30;3.03;;;;;;;;;;724671;192;932974;-65
2021/08/02 01:05:19;;;;;;;5.47;3.57;;;;;;;;;;726062;193;920194;-65
2021/08/02 01:07:48;;;;;;;5.23;3.50;;;;;;;;;;730714;192;919366;-66
2021/08/02 01:10:14;;;;;;;8.80;3.23;;;;;;;;;;726898;191;919209;-65
2021/08/02 01:12:39;;;;;;;8.30;4.30;;;;;;;;;;725478;193;920972;-64
2021/08/02 01:15:06;;;;;;;5.60;3.90;;;;;;;;;;731147;192;919563;-65
2021/08/02 01:17:31;;;;;;;8.73;4.77;;;;;;;;;;726274;191;919052;-64
2021/08/02 01:19:57;;;;;;;12.23;4.03;;;;;;;;;;726903;191;918777;-64
2021/08/02 01:22:23;;;;;;;8.67;4.60;;;;;;;;;;726219;191;918564;-63
2021/08/02 01:24:49;;;;;;;8.00;4.40;;;;;;;;;;734561;190;919088;-67
2021/08/02 01:27:21;;;;;;;4.37;3.73;;;;;;;;;;724955;191;919750;-65
2021/08/02 01:29:52;;;;;;;8.63;4.60;;;;;;;;;;727201;191;919127;-65
2021/08/02 01:32:18;;;;;;;7.62;4.97;;;;;;;;;;727330;193;919774;-64
2021/08/02 01:34:44;;;;;;;4.90;4.30;;;;;;;;;;732667;189;1021901;-65
2021/08/02 01:37:10;;;;;;;9.53;4.87;;;;;;;;;;724369;192;919166;-66
2021/08/02 01:39:36;;;;;;;9.40;5.55;;;;;;;;;;729092;189;919186;-65
2021/08/02 01:42:02;;;;;;;16.03;5.67;;;;;;;;;;733348;192;919636;-66
2021/08/02 01:44:28;;;;;;;5.97;5.20;;;;;;;;;;729559;189;919138;-66
2021/08/02 01:46:54;;;;;;;13.13;5.47;;;;;;;;;;726686;192;919513;-66
2021/08/02 01:49:20;;;;;;;9.05;5.82;;;;;;;;;;732017;192;919110;-67
2021/08/02 01:51:46;;;;;;;6.47;5.50;;;;;;;;;;725607;192;919415;-65
2021/08/02 01:54:13;;;;;;;6.77;5.63;;;;;;;;;;727422;192;920135;-66
2021/08/02 01:56:40;;;;;;;16.65;6.57;;;;;;;;;;727748;192;919619;-65
2021/08/02 01:59:06;;;;;;;14.53;5.77;;;;;;;;;;736575;188;886735;-65
2021/08/02 02:01:32;;;;;;;12.00;5.60;;;;;;;;;;726177;192;1021608;-66
2021/08/02 02:03:58;;;;;;;8.87;5.60;;;;;;;;;;726199;190;918746;-66
2021/08/02 02:06:24;;;;;;;7.03;6.32;;;;;;;;;;731265;191;919163;-66
2021/08/02 02:08:54;;;;;;;12.40;6.10;;;;;;;;;;727942;191;919605;-65
2021/08/02 02:11:20;;;;;;;6.67;5.97;;;;;;;;;;727983;191;920040;-66
2021/08/02 02:13:46;;;;;;;7.90;6.50;;;;;;;;;;728226;190;919543;-65
2021/08/02 02:16:12;;;;;;;11.33;7.03;;;;;;;;;;736874;188;919843;-66
2021/08/02 02:18:38;;;;;;;26.53;7.10;;;;;;;;;;727150;192;920233;-67
2021/08/02 02:21:04;;;;;;;8.40;6.90;;;;;;;;;;722666;192;919824;-67
2021/08/02 02:23:30;;;;;;;7.87;5.50;;;;;;;;;;729019;192;919830;-68
2021/08/02 02:25:56;;;;;;;13.90;6.87;;;;;;;;;;723282;192;919301;-68
2021/08/02 02:28:22;;;;;;;12.73;6.47;;;;;;;;;;729304;192;918887;-67
2021/08/02 02:30:47;;;;;;;10.03;5.93;;;;;;;;;;733832;191;920347;-67
2021/08/02 02:33:13;;;;;;;14.77;6.00;;;;;;;;;;722776;193;919393;-67
2021/08/02 02:35:40;;;;;;;8.43;7.53;;;;;;;;;;721155;192;920056;-68
2021/08/02 02:38:05;;;;;;;14.20;6.70;;;;;;;;;;730850;192;919300;-68
2021/08/02 02:40:31;;;;;;;12.43;7.67;;;;;;;;;;725292;192;919918;-67
2021/08/02 02:42:57;;;;;;;11.90;6.30;;;;;;;;;;725489;190;928412;-67
2021/08/02 02:45:23;;;;;;;17.03;7.07;;;;;;;;;;726088;190;919461;-67
2021/08/02 02:47:48;;;;;;;6.30;5.70;;;;;;;;;;731650;192;997507;-67
2021/08/02 02:50:14;;;;;;;11.38;6.57;;;;;;;;;;726899;190;920147;-68
2021/08/02 02:52:40;;;;;;;8.90;6.43;;;;;;;;;;729330;191;919938;-68
2021/08/02 02:55:07;;;;;;;11.97;6.50;;;;;;;;;;733023;191;920240;-68
2021/08/02 02:57:32;;;;;;;9.57;6.80;;;;;;;;;;724532;190;919243;-68
2021/08/02 02:59:58;;;;;;;8.70;6.43;;;;;;;;;;728811;192;918867;-70
2021/08/02 03:02:24;;;;;;;8.80;7.43;;;;;;;;;;732726;192;919365;-67
2021/08/02 03:04:50;;;;;;;8.57;7.13;;;;;;;;;;724982;190;919751;-67
2021/08/02 03:07:16;;;;;;;11.30;6.30;;;;;;;;;;726442;191;920267;-67
2021/08/02 03:09:42;;;;;;;12.07;6.80;;;;;;;;;;727248;190;927390;-67
2021/08/02 03:12:08;;;;;;;11.70;8.85;;;;;;;;;;736894;189;919611;-68
2021/08/02 03:14:33;;;;;;;9.47;6.47;;;;;;;;;;726751;192;919872;-67
2021/08/02 03:16:59;;;;;;;15.10;8.40;;;;;;;;;;726188;192;919658;-67
2021/08/02 03:19:25;;;;;;;17.03;7.07;;;;;;;;;;732836;192;921194;-67
2021/08/02 03:21:51;;;;;;;11.13;7.20;;;;;;;;;;725349;192;919745;-67
2021/08/02 03:24:19;;;;;;;9.70;7.33;;;;;;;;;;726889;192;919195;-68
2021/08/02 03:26:44;;;;;;;10.67;7.33;;;;;;;;;;729812;192;919467;-67
2021/08/02 03:29:12;;;;;;;9.50;7.33;;;;;;;;;;726915;191;918755;-67
2021/08/02 03:31:42;;;;;;;10.60;7.60;;;;;;;;;;725927;192;918545;-67
2021/08/02 03:34:08;;;;;;;19.20;8.47;;;;;;;;;;726697;192;911528;-67
2021/08/02 03:36:33;;;;;;;8.80;7.77;;;;;;;;;;732186;192;917074;-67
2021/08/02 03:38:59;;;;;;;9.00;7.23;;;;;;;;;;726912;192;918274;-67
2021/08/02 03:41:25;;;;;;;11.80;9.23;;;;;;;;;;724654;193;920168;-68
2021/08/02 03:43:51;;;;;;;12.70;8.60;;;;;;;;;;727256;193;1030691;-66
2021/08/02 03:46:17;;;;;;;9.43;8.20;;;;;;;;;;726720;192;929557;-68
2021/08/02 03:48:43;;;;;;;20.93;9.80;;;;;;;;;;720045;190;2116201;-69
2021/08/02 03:51:09;;;;;;;12.43;8.43;;;;;;;;;;727198;191;919768;-66
2021/08/02 03:53:37;;;;;;;9.10;8.03;;;;;;;;;;734231;190;915784;-67
2021/08/02 03:56:04;;;;;;;11.10;8.97;;;;;;;;;;724880;190;916550;-66
2021/08/02 03:58:30;;;;;;;11.40;8.83;;;;;;;;;;723619;191;924869;-65
2021/08/02 04:00:55;;;;;;;14.53;10.10;;;;;;;;;;731484;192;919098;-65
2021/08/02 04:03:21;;;;;;;13.43;10.40;;;;;;;;;;727985;190;920196;-65
2021/08/02 04:05:47;;;;;;;11.63;8.77;;;;;;;;;;729956;190;919050;-66
2021/08/02 04:08:13;;;;;;;18.23;8.70;;;;;;;;;;735018;190;635203;-69
2021/08/02 04:10:39;;;;;;;18.67;10.47;;;;;;;;;;733066;190;629212;-65
2021/08/02 04:13:05;;;;;;;16.90;10.90;;;;;;;;;;729586;192;918597;-65
2021/08/02 04:15:30;;;;;;;16.77;10.48;;;;;;;;;;726808;192;1020925;-64
2021/08/02 04:17:56;;;;;;;14.63;11.27;;;;;;;;;;726086;192;918409;-65
2021/08/02 04:20:22;;;;;;;15.00;11.37;;;;;;;;;;726774;192;919164;-64
2021/08/02 04:22:48;;;;;;;19.03;10.83;;;;;;;;;;726750;192;920710;-65
2021/08/02 04:25:14;;;;;;;14.40;10.40;;;;;;;;;;727942;192;918895;-65
2021/08/02 04:27:40;;;;;;;15.85;10.65;;;;;;;;;;725959;192;920467;-64
2021/08/02 04:30:06;;;;;;;15.20;11.80;;;;;;;;;;726015;192;918892;-65
2021/08/02 04:32:32;;;;;;;14.40;11.93;;;;;;;;;;730756;192;1021242;-65
2021/08/02 04:34:58;;;;;;;15.63;11.00;;;;;;;;;;726608;192;920354;-64
2021/08/02 04:37:24;;;;;;;23.73;13.00;;;;;;;;;;727887;191;917819;-65
2021/08/02 04:39:49;;;;;;;18.47;11.80;;;;;;;;;;731260;191;916256;-65
2021/08/02 04:42:15;;;;;;;16.57;11.70;;;;;;;;;;728232;190;916270;-65
2021/08/02 04:44:41;;;;;;;22.93;11.60;;;;;;;;;;728413;191;915801;-64
2021/08/02 04:47:07;;;;;;;20.13;13.50;;;;;;;;;;726738;192;916096;-65
2021/08/02 04:49:33;;;;;;;13.53;10.60;;;;;;;;;;731434;192;919515;-65
2021/08/02 04:51:59;;;;;;;17.80;11.80;;;;;;;;;;725138;192;1022269;-66
2021/08/02 04:54:24;;;;;;;13.93;10.32;;;;;;;;;;726288;192;919435;-65
2021/08/02 04:56:50;;;;;;;17.43;13.20;;;;;;;;;;730741;192;918492;-65
2021/08/02 04:59:16;;;;;;;15.17;11.77;;;;;;;;;;723851;191;920094;-65
2021/08/02 05:01:42;;;;;;;16.17;11.50;;;;;;;;;;725185;191;919414;-65
2021/08/02 05:04:08;;;;;;;14.70;10.53;;;;;;;;;;732980;192;918961;-65
2021/08/02 05:06:34;;;;;;;16.10;11.63;;;;;;;;;;726017;192;919076;-66
2021/08/02 05:08:59;;;;;;;16.93;11.70;;;;;;;;;;726223;193;1123951;-66
2021/08/02 05:11:25;;;;;;;17.30;11.90;;;;;;;;;;727451;191;919452;-66
2021/08/02 05:13:51;;;;;;;15.93;12.17;;;;;;;;;;728635;190;919164;-66
2021/08/02 05:16:17;;;;;;;15.40;12.60;;;;;;;;;;726104;191;920074;-66
2021/08/02 05:18:43;;;;;;;17.10;11.35;;;;;;;;;;729155;192;919152;-65
2021/08/02 05:21:09;;;;;;;18.20;12.73;;;;;;;;;;733364;191;916997;-66
2021/08/02 05:23:35;;;;;;;14.30;11.53;;;;;;;;;;726798;191;922650;-66
2021/08/02 05:26:01;;;;;;;20.45;11.65;;;;;;;;;;727096;191;919180;-66
2021/08/02 05:28:27;;;;;;;14.63;10.80;;;;;;;;;;730447;190;921211;-65
2021/08/02 05:30:54;;;;;;;14.10;9.80;;;;;;;;;;726356;191;918945;-66
2021/08/02 05:33:20;;;;;;;12.63;10.43;;;;;;;;;;725583;190;902321;-66
2021/08/02 05:35:46;;;;;;;13.07;11.00;;;;;;;;;;727044;191;922726;-65
2021/08/02 05:38:11;;;;;;;36.23;12.70;;;;;;;;;;727151;191;920932;-66
2021/08/02 05:40:37;;;;;;;17.20;11.93;;;;;;;;;;726211;192;921692;-64
2021/08/02 05:43:03;;;;;;;12.82;10.27;;;;;;;;;;727715;191;919468;-66
2021/08/02 05:45:29;;;;;;;19.03;12.27;;;;;;;;;;731938;191;919872;-66
2021/08/02 05:47:55;;;;;;;16.77;10.57;;;;;;;;;;729807;190;921110;-65
2021/08/02 05:50:22;;;;;;;14.77;10.52;;;;;;;;;;727836;192;918699;-65
2021/08/02 05:52:47;;;;;;;13.70;11.20;;;;;;;;;;731297;191;919288;-65
2021/08/02 05:55:13;;;;;;;13.87;10.90;;;;;;;;;;725270;192;917641;-66
2021/08/02 05:57:38;;;;;;;11.17;9.43;;;;;;;;;;725506;193;919265;-65
2021/08/02 06:00:05;;;;;;;15.83;10.40;;;;;;;;;;728330;193;920361;-65
2021/08/02 06:02:31;;;;;;;12.43;9.13;;;;;;;;;;727601;190;917071;-65
2021/08/02 06:04:57;;;;;;;10.20;9.07;;;;;;;;;;726897;191;917116;-66
2021/08/02 06:07:23;;;;;;;12.53;9.77;;;;;;;;;;727192;191;916345;-65
2021/08/02 06:09:50;;;;;;;15.03;10.10;;;;;;;;;;731257;192;915278;-65
2021/08/02 06:12:14;;;;;;;11.12;9.43;;;;;;;;;;728996;190;914801;-65
2021/08/02 06:14:40;;;;;;;12.67;9.57;;;;;;;;;;732062;192;629359;-65
2021/08/02 06:17:06;;;;;;;13.33;8.93;;;;;;;;;;731666;191;618398;-65
2021/08/02 06:19:32;;;;;;;12.23;9.70;;;;;;;;;;728584;190;636214;-65
2021/08/02 06:21:58;;;;;;;13.90;9.63;;;;;;;;;;731290;192;622521;-66
2021/08/02 06:24:23;;;;;;;21.13;8.97;;;;;;;;;;733334;192;621914;-65
2021/08/02 06:26:49;;;;;;;10.02;9.02;;;;;;;;;;729870;192;929085;-65
2021/08/02 06:29:15;;;;;;;12.07;8.57;;;;;;;;;;728960;191;919676;-65
2021/08/02 06:31:42;;;;;;;11.90;10.03;;;;;;;;;;728130;191;919402;-64
2021/08/02 06:34:09;;;;;;;19.40;10.00;;;;;;;;;;732446;190;918899;-65
2021/08/02 06:36:34;;;;;;;14.87;11.10;;;;;;;;;;726909;189;919150;-65
2021/08/02 06:39:00;;;;;;;13.93;10.50;;;;;;;;;;726915;192;920430;-64
2021/08/02 06:41:25;;;;;;;18.10;12.07;;;;;;;;;;731723;191;919443;-65
2021/08/02 06:43:51;;;;;;;16.40;11.50;;;;;;;;;;726126;190;919539;-65
2021/08/02 06:46:17;;;;;;;14.20;11.20;;;;;;;;;;725426;190;919410;-65
2021/08/02 06:48:43;;;;;;;13.87;11.40;;;;;;;;;;730658;191;918665;-65
2021/08/02 06:51:10;;;;;;;13.63;12.00;;;;;;;;;;727915;191;920330;-64
2021/08/02 06:53:35;;;;;;;14.87;12.40;;;;;;;;;;726457;190;936732;-65
2021/08/02 06:56:01;;;;;;;15.57;11.82;;;;;;;;;;730083;192;920964;-64
2021/08/02 06:58:27;;;;;;;12.90;10.90;;;;;;;;;;734665;190;919432;-64
2021/08/02 07:00:53;;;;;;;11.57;10.13;;;;;;;;;;727397;192;919005;-64
2021/08/02 07:03:19;;;;;;;12.70;11.00;;;;;;;;;;724870;193;919218;-65
2021/08/02 07:05:45;;;;;;;14.43;10.87;;;;;;;;;;730634;192;920724;-66
2021/08/02 07:08:11;;;;;;;16.10;9.07;;;;;;;;;;724911;191;919069;-65
2021/08/02 07:10:36;;;;;;;10.27;9.27;;;;;;;;;;725410;193;918867;-64
2021/08/02 07:13:02;;;;;;;11.93;8.70;;;;;;;;;;731521;192;919321;-64
2021/08/02 07:15:28;;;;;;;11.57;9.03;;;;;;;;;;726141;192;918968;-64
2021/08/02 07:17:54;;;;;;;11.33;9.70;;;;;;;;;;727689;192;919801;-64
2021/08/02 07:20:20;;;;;;;10.10;8.77;;;;;;;;;;731805;192;919444;-64
2021/08/02 07:22:46;;;;;;;10.80;8.83;;;;;;;;;;726885;192;919764;-64
2021/08/02 07:25:13;;;;;;;11.27;9.00;;;;;;;;;;729464;192;904720;-64
2021/08/02 07:27:38;;;;;;;15.80;10.07;;;;;;;;;;729541;192;920140;-65
2021/08/02 07:30:04;;;;;;;10.73;9.63;;;;;;;;;;732881;191;817076;-64
2021/08/02 07:32:29;;;;;;;10.25;9.15;;;;;;;;;;725584;192;919413;-64
2021/08/02 07:34:55;;;;;;;11.97;9.40;;;;;;;;;;728294;193;919185;-64
2021/08/02 07:37:21;;;;;;;10.27;9.27;;;;;;;;;;732902;190;919983;-64
2021/08/02 07:39:47;;;;;;;11.40;10.30;;;;;;;;;;728647;192;919912;-64
2021/08/02 07:42:13;;;;;;;11.17;9.50;;;;;;;;;;728290;189;920608;-64
2021/08/02 07:44:39;;;;;;;10.00;8.97;;;;;;;;;;732606;189;921257;-64
2021/08/02 07:47:05;;;;;;;10.38;9.30;;;;;;;;;;728653;191;1021691;-64
2021/08/02 07:49:30;;;;;;;12.17;10.97;;;;;;;;;;727800;192;918985;-63
2021/08/02 07:51:56;;;;;;;11.20;10.10;;;;;;;;;;727582;191;919415;-64
2021/08/02 07:54:22;;;;;;;12.43;10.30;;;;;;;;;;727985;189;919219;-64
2021/08/02 07:56:48;;;;;;;14.37;11.73;;;;;;;;;;725709;192;920132;-63
2021/08/02 07:59:14;;;;;;;13.98;11.23;;;;;;;;;;726698;192;919259;-64
2021/08/02 08:01:40;;;;;;;12.47;10.70;;;;;;;;;;733539;192;920131;-63
2021/08/02 08:04:06;;;;;;;14.57;11.93;;;;;;;;;;724112;193;919523;-64
2021/08/02 08:06:32;;;;;;;12.77;11.48;;;;;;;;;;728628;192;919621;-63
2021/08/02 08:08:57;;;;;;;13.93;11.40;;;;;;;;;;730748;192;1035126;-64
2021/08/02 08:11:23;;;;;;;14.18;12.10;;;;;;;;;;726563;190;919250;-63
2021/08/02 08:13:49;;;;;;;13.37;11.97;;;;;;;;;;727658;192;919541;-63
2021/08/02 08:16:15;;;;;;;14.13;12.67;;;;;;;;;;732215;192;918763;-63
2021/08/02 08:18:41;;;;;;;20.23;13.10;;;;;;;;;;725483;192;919873;-64
2021/08/02 08:21:07;;;;;;;14.13;12.63;;;;;;;;;;725820;191;919480;-64
2021/08/02 08:23:33;;;;;;;15.38;13.73;;;;;;;;;;729414;191;918690;-64
2021/08/02 08:25:58;;;;;;;14.87;12.70;;;;;;;;;;732181;192;618337;-64
2021/08/02 08:28:24;;;;;;;16.63;14.20;;;;;;;;;;730280;192;629158;-64
2021/08/02 08:30:50;;;;;;;15.55;13.82;;;;;;;;;;730723;193;627458;-64
2021/08/02 08:33:16;;;;;;;13.73;12.40;;;;;;;;;;732086;193;631111;-64
2021/08/02 08:35:42;;;;;;;15.00;12.73;;;;;;;;;;734048;191;628563;-66
2021/08/02 08:38:08;;;;;;;15.60;11.57;;;;;;;;;;730393;192;628403;-67
2021/08/02 08:40:33;;;;;;;13.53;12.10;;;;;;;;;;734847;191;625524;-64
2021/08/02 08:42:59;;;;;;;16.53;12.60;;;;;;;;;;732614;190;628362;-65
2021/08/02 08:45:25;;;;;;;14.33;12.27;;;;;;;;;;731183;190;627089;-65
2021/08/02 08:47:51;;;;;;;12.80;11.47;;;;;;;;;;730356;192;629008;-65
2021/08/02 08:50:17;;;;;;;11.73;10.53;;;;;;;;;;731594;192;613763;-63
2021/08/02 08:52:43;;;;;;;14.77;13.30;;;;;;;;;;730913;192;631437;-64
2021/08/02 08:55:10;;;;;;;13.60;12.30;;;;;;;;;;731461;191;632251;-65
2021/08/02 08:57:35;;;;;;;14.43;11.63;;;;;;;;;;733341;190;629000;-64
2021/08/02 09:00:01;;;;;;;13.57;12.20;;;;;;;;;;734866;192;618351;-66
2021/08/02 09:02:27;;;;;;;11.63;10.43;;;;;;;;;;731312;191;631613;-64
2021/08/02 09:04:53;;;;;;;12.33;11.10;;;;;;;;;;734386;192;629201;-63
2021/08/02 09:07:19;;;;;;;10.60;9.53;;;;;;;;;;731355;192;623072;-64
2021/08/02 09:09:45;;;;;;;9.80;8.90;;;;;;;;;;731549;191;633627;-64
2021/08/02 09:12:14;;;;;;;10.30;9.30;;;;;;;;;;734687;191;628524;-64
2021/08/02 09:14:37;;;;;;;9.37;8.47;;;;;;;;;;733107;192;620825;-64
2021/08/02 09:17:03;;;;;;;10.63;9.30;;;;;;;;;;730386;192;622857;-64
2021/08/02 09:19:35;;;;;;;10.23;9.23;;;;;;;;;;731188;191;633680;-64
2021/08/02 09:22:00;;;;;;;10.23;9.23;;;;;;;;;;736544;192;769141;-63
2021/08/02 09:24:27;;;;;;;9.57;8.67;;;;;;;;;;730614;192;633740;-63
2021/08/02 09:26:53;;;;;;;10.63;8.13;;;;;;;;;;730656;190;629216;-63
2021/08/02 09:29:20;;;;;;;8.23;7.23;;;;;;;;;;734136;192;627869;-63
2021/08/02 09:31:46;;;;;;;7.77;6.83;;;;;;;;;;731644;192;637019;-63
2021/08/02 09:34:12;;;;;;;9.57;7.67;;;;;;;;;;729512;191;637304;-64
2021/08/02 09:36:38;;;;;;;10.00;7.30;;;;;;;;;;732041;190;643231;-63
2021/08/02 09:39:04;;;;;;;10.67;9.43;;;;;;;;;;730863;193;632480;-63
2021/08/02 09:41:30;;;;;;;8.43;7.63;;;;;;;;;;729280;193;627630;-64
2021/08/02 09:43:55;;;;;;;9.43;8.53;;;;;;;;;;730248;191;618880;-63
2021/08/02 09:46:21;;;;;;;8.10;7.30;;;;;;;;;;734229;190;617280;-64
2021/08/02 09:48:47;;;;;;;13.30;7.90;;;;;;;;;;729051;192;631139;-63
2021/08/02 09:51:16;;;;;;;8.63;7.53;;;;;;;;;;730695;191;633564;-63
2021/08/02 09:53:43;;;;;;;7.77;6.97;;;;;;;;;;731021;193;621427;-62
2021/08/02 09:56:11;;;;;;;7.87;7.17;;;;;;;;;;730079;193;619468;-62
2021/08/02 09:58:37;;;;;;;11.03;7.43;;;;;;;;;;729423;192;845259;-64
2021/08/02 10:01:03;;;;;;;7.87;7.07;;;;;;;;;;733842;191;623377;-61
2021/08/02 10:03:29;;;;;;;8.60;7.23;;;;;;;;;;733218;190;626536;-62
2021/08/02 10:05:54;;;;;;;8.17;7.37;;;;;;;;;;731243;192;636966;-62
2021/08/02 10:08:20;;;;;;;7.97;7.17;;;;;;;;;;732396;190;620971;-62
2021/08/02 10:10:46;;;;;;;8.87;7.70;;;;;;;;;;736627;192;625470;-61
2021/08/02 10:13:12;;;;;;;12.23;7.53;;;;;;;;;;729908;190;698906;-63
2021/08/02 10:15:38;;;;;;;17.43;8.97;;;;;;;;;;730587;191;620197;-63
2021/08/02 10:18:04;;;;;;;8.70;7.73;;;;;;;;;;733659;191;632289;-60
2021/08/02 10:20:30;;;;;;;12.87;8.00;;;;;;;;;;727509;193;628999;-63
2021/08/02 10:22:55;;;;;;;8.53;7.73;;;;;;;;;;731188;192;622419;-64
2021/08/02 10:25:27;;;;;;;7.87;6.77;;;;;;;;;;731144;190;622745;-62
2021/08/02 10:27:53;;;;;;;9.20;8.20;;;;;;;;;;732488;192;645048;-61
2021/08/02 10:30:22;;;;;;;8.33;7.03;;;;;;;;;;727812;190;626941;-61
2021/08/02 10:32:50;;;;;;;8.50;7.10;;;;;;;;;;730587;191;695433;-61
2021/08/02 10:35:16;;;;;;;6.53;5.93;;;;;;;;;;727150;193;842195;-62
2021/08/02 10:37:42;;;;;;;7.90;6.23;;;;;;;;;;734160;192;623650;-62
2021/08/02 10:40:08;;;;;;;7.53;6.83;;;;;;;;;;730916;191;644509;-62
2021/08/02 10:42:39;;;;;;;7.67;6.80;;;;;;;;;;729970;192;624158;-62
2021/08/02 10:45:05;;;;;;;7.93;6.80;;;;;;;;;;732897;192;630742;-62
2021/08/02 10:47:36;;;;;;;6.97;6.27;;;;;;;;;;730109;192;626295;-62
2021/08/02 10:50:02;;;;;;;6.57;5.87;;;;;;;;;;733081;191;637205;-61
2021/08/02 10:52:28;;;;;;;6.87;5.73;;;;;;;;;;731548;193;617215;-64
2021/08/02 10:54:54;;;;;;;7.50;5.23;;;;;;;;;;733458;190;633254;-62
2021/08/02 10:57:19;;;;;;;5.40;4.90;;;;;;;;;;729430;192;627830;-62
2021/08/02 10:59:45;;;;;;;6.80;6.10;;;;;;;;;;730469;192;631738;-62
2021/08/02 11:02:11;;;;;;;12.73;5.83;;;;;;;;;;733505;191;628487;-61
2021/08/02 11:04:38;;;;;;;17.77;7.73;;;;;;;;;;729420;191;636747;-61
2021/08/02 11:07:03;;;;;;;6.10;5.40;;;;;;;;;;731795;191;635181;-61
2021/08/02 11:09:29;;;;;;;7.50;5.60;;;;;;;;;;731356;192;631283;-62
2021/08/02 11:12:01;;;;;;;6.03;4.17;;;;;;;;;;735081;189;796389;-60
2021/08/02 11:14:27;;;;;;;5.93;5.10;;;;;;;;;;726818;192;627399;-62
2021/08/02 11:16:53;;;;;;;5.97;4.70;;;;;;;;;;727968;192;635707;-62
2021/08/02 11:19:20;;;;;;;4.53;3.87;;;;;;;;;;729804;192;631476;-61
2021/08/02 11:21:45;;;;;;;5.53;4.47;;;;;;;;;;732624;190;616063;-62
2021/08/02 11:24:11;;;;;;;6.70;5.50;;;;;;;;;;731492;191;629557;-61
2021/08/02 11:26:43;;;;;;;5.33;4.53;;;;;;;;;;729416;191;929049;-61
2021/08/02 11:29:09;;;;;;;6.40;5.17;;;;;;;;;;729935;192;919390;-60
2021/08/02 11:31:34;;;;;;;10.23;4.50;;;;;;;;;;728635;192;919944;-61
2021/08/02 11:34:00;;;;;;;6.35;4.93;;;;;;;;;;727020;192;936331;-61
2021/08/02 11:36:27;;;;;;;9.17;4.63;;;;;;;;;;730605;193;919768;-61
2021/08/02 11:38:52;;;;;;;10.30;4.70;;;;;;;;;;725053;192;919941;-61
2021/08/02 11:41:23;;;;;;;8.47;5.40;;;;;;;;;;726235;191;919509;-61
2021/08/02 11:43:49;;;;;;;4.73;4.23;;;;;;;;;;726105;192;925398;-61
2021/08/02 11:46:14;;;;;;;9.53;6.40;;;;;;;;;;733535;192;919437;-60
2021/08/02 11:48:41;;;;;;;11.80;4.70;;;;;;;;;;726793;192;919757;-62
2021/08/02 11:51:07;;;;;;;4.63;4.23;;;;;;;;;;724970;192;919906;-60
2021/08/02 11:53:33;;;;;;;4.60;4.17;;;;;;;;;;728434;191;919820;-61
2021/08/02 11:55:58;;;;;;;5.23;4.60;;;;;;;;;;725965;192;920045;-62
2021/08/02 11:58:24;;;;;;;5.80;5.20;;;;;;;;;;727500;191;919875;-60
2021/08/02 12:00:56;;;;;;;6.30;5.50;;;;;;;;;;730505;193;898592;-60
2021/08/02 12:03:22;;;;;;;6.13;4.70;;;;;;;;;;731430;192;919296;-59
2021/08/02 12:05:49;;;;;;;5.60;4.27;;;;;;;;;;721965;192;1124551;-61
2021/08/02 12:08:13;;;;;;;6.00;5.10;;;;;;;;;;728361;191;919760;-61
2021/08/02 12:10:39;;;;;;;5.60;5.00;;;;;;;;;;733108;192;919723;-61
2021/08/02 12:13:05;;;;;;;6.53;4.40;;;;;;;;;;729857;192;920228;-61
2021/08/02 12:15:31;;;;;;;7.20;4.10;;;;;;;;;;724916;192;921215;-61
2021/08/02 12:17:57;;;;;;;10.40;4.43;;;;;;;;;;732622;190;927232;-62
2021/08/02 12:20:29;;;;;;;5.83;5.20;;;;;;;;;;723427;192;1738633;-61
2021/08/02 12:22:55;;;;;;;7.90;4.10;;;;;;;;;;727155;191;919811;-62
2021/08/02 12:25:22;;;;;;;6.77;4.57;;;;;;;;;;729196;191;918604;-61
2021/08/02 12:27:48;;;;;;;4.63;3.73;;;;;;;;;;729937;190;915050;-61
2021/08/02 12:30:14;;;;;;;5.90;4.50;;;;;;;;;;728991;190;812747;-62
2021/08/02 12:32:40;;;;;;;4.57;4.17;;;;;;;;;;727664;190;916518;-61
2021/08/02 12:35:06;;;;;;;4.60;4.20;;;;;;;;;;731892;191;919003;-62
2021/08/02 12:37:32;;;;;;;6.63;4.73;;;;;;;;;;726608;191;920643;-65
2021/08/02 12:39:58;;;;;;;4.47;3.73;;;;;;;;;;729722;191;920035;-61
2021/08/02 12:42:26;;;;;;;5.30;3.73;;;;;;;;;;728884;192;919555;-60
2021/08/02 12:44:49;;;;;;;5.00;4.50;;;;;;;;;;730177;192;919451;-62
2021/08/02 12:47:15;;;;;;;5.35;4.15;;;;;;;;;;726577;192;920595;-62
2021/08/02 12:49:43;;;;;;;3.37;3.00;;;;;;;;;;725908;192;919710;-61
2021/08/02 12:52:09;;;;;;;10.03;2.50;;;;;;;;;;732376;192;918621;-62
2021/08/02 12:54:35;;;;;;;4.53;3.20;;;;;;;;;;725316;190;920204;-60
2021/08/02 12:57:00;;;;;;;4.75;3.20;;;;;;;;;;725181;191;1137250;-62
2021/08/02 12:59:26;;;;;;;5.30;3.70;;;;;;;;;;732639;192;919341;-62
2021/08/02 13:01:52;;;;;;;3.45;2.83;;;;;;;;;;727152;193;918915;-61
2021/08/02 13:04:18;;;;;;;4.33;2.67;;;;;;;;;;725086;192;919322;-60
2021/08/02 13:06:44;;;;;;;2.93;2.40;;;;;;;;;;728909;192;921219;-61
2021/08/02 13:09:10;;;;;;;3.87;2.60;;;;;;;;;;731440;192;919910;-61
2021/08/02 13:11:36;;;;;;;4.77;3.20;;;;;;;;;;725574;192;919715;-62
2021/08/02 13:14:01;;;;;;;22.20;3.57;;;;;;;;;;725545;192;919291;-61
2021/08/02 13:16:27;;;;;;;3.60;2.53;;;;;;;;;;729381;193;920390;-63
2021/08/02 13:18:54;;;;;;;2.87;1.90;;;;;;;;;;725657;191;920481;-65
2021/08/02 13:21:20;;;;;;;7.10;2.03;;;;;;;;;;726073;193;919562;-65
2021/08/02 13:28:49;;;;;;;4.67;2.17;;;;;;;;;;728831;192;919160;-67
2021/08/02 13:31:15;;;;;;;5.60;2.60;;;;;;;;;;728125;192;919030;-65
2021/08/02 13:33:41;;;;;;;10.13;3.30;;;;;;;;;;728600;191;1934214;-65
2021/08/02 13:36:07;;;;;;;9.10;2.37;;;;;;;;;;731852;190;622348;-64
2021/08/02 13:38:33;;;;;;;4.87;2.53;;;;;;;;;;731327;191;625955;-66
2021/08/02 13:40:58;;;;;;;2.90;2.40;;;;;;;;;;731031;191;630869;-64
2021/08/02 13:43:24;;;;;;;7.87;2.73;;;;;;;;;;743128;187;626412;-63
2021/08/02 13:45:50;;;;;;;3.57;2.30;;;;;;;;;;731028;191;629328;-63
2021/08/02 13:48:16;;;;;;;3.80;2.50;;;;;;;;;;731293;191;616648;-62
2021/08/02 13:50:42;;;;;;;7.03;2.73;;;;;;;;;;735080;190;631519;-63
2021/08/02 13:53:08;;;;;;;6.90;3.40;;;;;;;;;;731648;191;619976;-63
2021/08/02 13:55:33;;;;;;;7.05;2.95;;;;;;;;;;730880;192;625980;-63
2021/08/02 13:57:59;;;;;;;5.00;3.23;;;;;;;;;;734722;192;628294;-63
2021/08/02 14:00:25;;;;;;;6.20;2.90;;;;;;;;;;730548;191;635859;-65
2021/08/02 14:02:51;;;;;;;5.10;3.00;;;;;;;;;;730799;191;624196;-64
2021/08/02 14:05:17;;;;;;;8.73;2.50;;;;;;;;;;735309;191;620240;-65
2021/08/02 14:07:43;;;;;;;4.40;2.30;;;;;;;;;;731539;190;632808;-65
2021/08/02 14:10:09;;;;;;;3.40;2.63;;;;;;;;;;728897;192;625551;-66
2021/08/02 14:12:35;;;;;;;3.27;2.00;;;;;;;;;;732824;192;636433;-66
2021/08/02 14:15:06;;;;;;;4.90;1.80;;;;;;;;;;733809;191;609880;-67
2021/08/02 14:17:32;;;;;;;4.63;2.40;;;;;;;;;;728274;190;623715;-66